sensor_id;sensor_type;location;lat;lon;timestamp;pressure;altitude;pressure_sealevel;temperature;humidity
55590;BME280;41452;42.780;23.116;2024-03-02T00:00:56;93823.91;;;6.11;100.00
55590;BME280;41452;42.780;23.116;2024-03-02T00:03:22;93824.22;;;6.21;100.00
55590;BME280;41452;42.780;23.116;2024-03-02T00:05:50;93814.88;;;6.13;100.00
55590;BME280;41452;42.780;23.116;2024-03-02T00:08:23;93829.50;;;6.14;100.00
55590;BME280;41452;42.780;23.116;2024-03-02T00:10:50;93829.69;;;6.38;100.00
55590;BME280;41452;42.780;23.116;2024-03-02T00:13:16;93830.91;;;6.35;100.00
55590;BME280;41452;42.780;23.116;2024-03-02T00:18:11;93801.63;;;6.52;100.00
55590;BME280;41452;42.780;23.116;2024-03-02T00:20:38;93831.63;;;6.79;100.00
55590;BME280;41452;42.780;23.116;2024-03-02T00:23:05;93834.97;;;6.87;100.00
55590;BME280;41452;42.780;23.116;2024-03-02T00:25:38;93836.25;;;6.96;100.00
55590;BME280;41452;42.780;23.116;2024-03-02T00:28:04;93834.94;;;7.05;100.00
55590;BME280;41452;42.780;23.116;2024-03-02T00:33:11;93829.84;;;7.10;100.00
55590;BME280;41452;42.780;23.116;2024-03-02T00:35:37;93829.97;;;7.15;100.00
55590;BME280;41452;42.780;23.116;2024-03-02T00:38:05;93828.50;;;7.19;100.00
55590;BME280;41452;42.780;23.116;2024-03-02T00:40:31;93776.78;;;6.98;100.00
55590;BME280;41452;42.780;23.116;2024-03-02T00:42:57;93802.88;;;7.16;100.00
55590;BME280;41452;42.780;23.116;2024-03-02T00:45:23;93831.03;;;7.26;100.00
55590;BME280;41452;42.780;23.116;2024-03-02T00:47:50;93816.63;;;7.23;100.00
55590;BME280;41452;42.780;23.116;2024-03-02T00:50:15;93809.00;;;7.22;100.00
55590;BME280;41452;42.780;23.116;2024-03-02T00:52:41;93805.91;;;7.13;100.00
55590;BME280;41452;42.780;23.116;2024-03-02T00:55:07;93809.09;;;7.15;100.00
55590;BME280;41452;42.780;23.116;2024-03-02T00:57:34;93819.09;;;7.18;100.00
55590;BME280;41452;42.780;23.116;2024-03-02T01:00:00;93791.34;;;7.06;100.00
55590;BME280;41452;42.780;23.116;2024-03-02T01:02:25;93722.19;;;6.66;100.00
55590;BME280;41452;42.780;23.116;2024-03-02T01:04:52;93811.53;;;7.29;100.00
55590;BME280;41452;42.780;23.116;2024-03-02T01:07:17;93757.16;;;6.95;100.00
55590;BME280;41452;42.780;23.116;2024-03-02T01:09:43;93811.06;;;7.32;100.00
55590;BME280;41452;42.780;23.116;2024-03-02T01:12:08;93801.66;;;7.31;100.00
55590;BME280;41452;42.780;23.116;2024-03-02T01:14:34;93809.22;;;7.20;100.00
55590;BME280;41452;42.780;23.116;2024-03-02T01:17:00;93778.88;;;7.08;100.00
55590;BME280;41452;42.780;23.116;2024-03-02T01:19:28;93797.06;;;7.14;100.00
55590;BME280;41452;42.780;23.116;2024-03-02T01:21:54;93794.06;;;6.99;100.00
55590;BME280;41452;42.780;23.116;2024-03-02T01:24:19;93788.13;;;6.92;100.00
55590;BME280;41452;42.780;23.116;2024-03-02T01:26:44;93770.84;;;6.91;100.00
55590;BME280;41452;42.780;23.116;2024-03-02T01:29:10;93796.25;;;7.14;100.00
55590;BME280;41452;42.780;23.116;2024-03-02T01:31:35;93776.41;;;7.13;100.00
55590;BME280;41452;42.780;23.116;2024-03-02T01:34:00;93782.88;;;7.22;100.00
55590;BME280;41452;42.780;23.116;2024-03-02T01:36:26;93778.81;;;7.26;100.00
55590;BME280;41452;42.780;23.116;2024-03-02T01:38:51;93774.84;;;7.23;100.00
55590;BME280;41452;42.780;23.116;2024-03-02T01:41:16;93754.47;;;7.14;100.00
55590;BME280;41452;42.780;23.116;2024-03-02T01:43:42;93777.22;;;7.25;100.00
55590;BME280;41452;42.780;23.116;2024-03-02T01:46:07;93768.34;;;7.26;100.00
55590;BME280;41452;42.780;23.116;2024-03-02T01:48:32;93768.72;;;7.30;100.00
55590;BME280;41452;42.780;23.116;2024-03-02T01:50:59;93748.47;;;7.13;100.00
55590;BME280;41452;42.780;23.116;2024-03-02T01:53:24;93768.13;;;7.28;100.00
55590;BME280;41452;42.780;23.116;2024-03-02T01:55:50;93693.81;;;6.88;100.00
55590;BME280;41452;42.780;23.116;2024-03-02T01:58:16;93758.38;;;7.23;100.00
55590;BME280;41452;42.780;23.116;2024-03-02T02:00:41;93774.84;;;7.23;100.00
55590;BME280;41452;42.780;23.116;2024-03-02T02:03:07;93749.38;;;7.07;100.00
55590;BME280;41452;42.780;23.116;2024-03-02T02:05:33;93773.00;;;7.24;100.00
55590;BME280;41452;42.780;23.116;2024-03-02T02:07:58;93777.88;;;7.20;100.00
55590;BME280;41452;42.780;23.116;2024-03-02T02:10:24;93774.13;;;7.16;100.00
55590;BME280;41452;42.780;23.116;2024-03-02T02:12:49;93772.66;;;7.20;100.00
55590;BME280;41452;42.780;23.116;2024-03-02T02:15:22;93769.84;;;7.22;100.00
55590;BME280;41452;42.780;23.116;2024-03-02T02:17:47;93767.00;;;7.23;100.00
55590;BME280;41452;42.780;23.116;2024-03-02T02:20:13;93772.00;;;7.25;100.00
55590;BME280;41452;42.780;23.116;2024-03-02T02:22:38;93772.22;;;7.23;100.00
55590;BME280;41452;42.780;23.116;2024-03-02T02:25:04;93769.47;;;7.18;100.00
55590;BME280;41452;42.780;23.116;2024-03-02T02:27:29;93767.66;;;7.19;100.00
55590;BME280;41452;42.780;23.116;2024-03-02T02:29:55;93715.91;;;6.85;100.00
55590;BME280;41452;42.780;23.116;2024-03-02T02:32:21;93764.59;;;7.22;100.00
55590;BME280;41452;42.780;23.116;2024-03-02T02:34:46;93764.38;;;7.23;100.00
55590;BME280;41452;42.780;23.116;2024-03-02T02:37:12;93768.00;;;7.22;100.00
55590;BME280;41452;42.780;23.116;2024-03-02T02:39:37;93770.72;;;7.16;100.00
55590;BME280;41452;42.780;23.116;2024-03-02T02:42:02;93767.66;;;7.19;100.00
55590;BME280;41452;42.780;23.116;2024-03-02T02:44:28;93771.66;;;7.21;100.00
55590;BME280;41452;42.780;23.116;2024-03-02T02:46:53;93764.03;;;7.20;100.00
55590;BME280;41452;42.780;23.116;2024-03-02T02:49:19;93765.41;;;7.22;100.00
55590;BME280;41452;42.780;23.116;2024-03-02T02:51:44;93762.78;;;7.22;100.00
55590;BME280;41452;42.780;23.116;2024-03-02T02:54:09;93765.97;;;7.24;100.00
55590;BME280;41452;42.780;23.116;2024-03-02T02:56:35;93770.72;;;7.16;100.00
55590;BME280;41452;42.780;23.116;2024-03-02T02:59:00;93770.50;;;7.17;100.00
55590;BME280;41452;42.780;23.116;2024-03-02T03:01:25;93768.44;;;7.19;100.00
55590;BME280;41452;42.780;23.116;2024-03-02T03:03:51;93766.09;;;7.18;100.00
55590;BME280;41452;42.780;23.116;2024-03-02T03:06:16;93739.78;;;7.01;100.00
55590;BME280;41452;42.780;23.116;2024-03-02T03:08:41;93758.47;;;7.16;100.00
55590;BME280;41452;42.780;23.116;2024-03-02T04:40:29;93772.81;;;6.95;100.00
55590;BME280;41452;42.780;23.116;2024-03-02T04:42:55;93770.41;;;6.94;100.00
55590;BME280;41452;42.780;23.116;2024-03-02T04:45:20;93772.59;;;6.97;100.00
55590;BME280;41452;42.780;23.116;2024-03-02T04:47:45;93769.91;;;7.03;100.00
55590;BME280;41452;42.780;23.116;2024-03-02T04:50:11;93770.69;;;7.04;100.00
55590;BME280;41452;42.780;23.116;2024-03-02T04:52:36;93777.50;;;7.05;100.00
55590;BME280;41452;42.780;23.116;2024-03-02T04:55:02;93781.13;;;7.04;100.00
55590;BME280;41452;42.780;23.116;2024-03-02T04:57:46;93777.13;;;7.01;100.00
55590;BME280;41452;42.780;23.116;2024-03-02T05:00:13;93778.97;;;7.01;100.00
55590;BME280;41452;42.780;23.116;2024-03-02T05:02:38;93778.31;;;7.06;100.00
55590;BME280;41452;42.780;23.116;2024-03-02T05:05:04;93781.84;;;7.11;100.00
55590;BME280;41452;42.780;23.116;2024-03-02T05:07:29;93773.44;;;7.09;100.00
55590;BME280;41452;42.780;23.116;2024-03-02T05:09:54;93787.63;;;7.13;100.00
55590;BME280;41452;42.780;23.116;2024-03-02T05:12:20;93779.00;;;7.13;100.00
55590;BME280;41452;42.780;23.116;2024-03-02T05:15:04;93790.59;;;7.17;100.00
55590;BME280;41452;42.780;23.116;2024-03-02T05:17:29;93780.94;;;7.17;100.00
55590;BME280;41452;42.780;23.116;2024-03-02T05:19:55;93787.75;;;7.18;100.00
55590;BME280;41452;42.780;23.116;2024-03-02T05:22:20;93797.78;;;7.21;100.00
55590;BME280;41452;42.780;23.116;2024-03-02T05:24:46;93798.56;;;7.22;100.00
55590;BME280;41452;42.780;23.116;2024-03-02T05:27:11;93799.34;;;7.22;100.00
55590;BME280;41452;42.780;23.116;2024-03-02T05:29:36;93797.78;;;7.21;100.00
55590;BME280;41452;42.780;23.116;2024-03-02T05:32:02;93800.16;;;7.23;100.00
55590;BME280;41452;42.780;23.116;2024-03-02T05:34:27;93801.75;;;7.24;100.00
55590;BME280;41452;42.780;23.116;2024-03-02T05:36:53;93808.78;;;7.23;100.00
55590;BME280;41452;42.780;23.116;2024-03-02T05:39:18;93781.47;;;7.08;100.00
55590;BME280;41452;42.780;23.116;2024-03-02T05:41:43;93798.91;;;7.26;100.00
55590;BME280;41452;42.780;23.116;2024-03-02T05:44:09;93809.13;;;7.27;100.00
55590;BME280;41452;42.780;23.116;2024-03-02T05:46:34;93804.13;;;7.26;100.00
55590;BME280;41452;42.780;23.116;2024-03-02T05:49:00;93783.31;;;7.07;100.00
55590;BME280;41452;42.780;23.116;2024-03-02T05:51:26;93743.78;;;6.73;100.00
55590;BME280;41452;42.780;23.116;2024-03-02T05:53:51;93811.47;;;7.17;100.00
55590;BME280;41452;42.780;23.116;2024-03-02T05:56:16;93817.63;;;7.22;100.00
55590;BME280;41452;42.780;23.116;2024-03-02T05:58:42;93816.50;;;7.18;100.00
55590;BME280;41452;42.780;23.116;2024-03-02T06:01:38;93820.31;;;7.16;100.00
55590;BME280;41452;42.780;23.116;2024-03-02T06:04:03;93817.13;;;7.14;100.00
55590;BME280;41452;42.780;23.116;2024-03-02T06:06:29;93810.28;;;7.01;100.00
55590;BME280;41452;42.780;23.116;2024-03-02T06:08:54;93802.28;;;6.84;100.00
55590;BME280;41452;42.780;23.116;2024-03-02T06:11:20;93814.50;;;7.02;100.00
55590;BME280;41452;42.780;23.116;2024-03-02T06:13:45;93810.56;;;6.93;100.00
55590;BME280;41452;42.780;23.116;2024-03-02T06:16:11;93815.84;;;6.74;100.00
55590;BME280;41452;42.780;23.116;2024-03-02T06:18:38;93821.06;;;6.74;100.00
55590;BME280;41452;42.780;23.116;2024-03-02T06:21:03;93816.47;;;6.70;100.00
55590;BME280;41452;42.780;23.116;2024-03-02T06:23:29;93826.72;;;6.53;100.00
55590;BME280;41452;42.780;23.116;2024-03-02T06:25:54;93798.75;;;6.41;100.00
55590;BME280;41452;42.780;23.116;2024-03-02T06:28:20;93823.94;;;6.66;100.00
55590;BME280;41452;42.780;23.116;2024-03-02T06:30:45;93830.63;;;6.62;100.00
55590;BME280;41452;42.780;23.116;2024-03-02T06:33:11;93830.69;;;6.55;100.00
55590;BME280;41452;42.780;23.116;2024-03-02T06:35:36;93828.28;;;6.54;100.00
55590;BME280;41452;42.780;23.116;2024-03-02T06:38:02;93782.66;;;6.26;100.00
55590;BME280;41452;42.780;23.116;2024-03-02T06:40:27;93835.78;;;6.69;100.00
55590;BME280;41452;42.780;23.116;2024-03-02T06:42:53;93725.25;;;5.70;100.00
55590;BME280;41452;42.780;23.116;2024-03-02T06:45:18;93813.97;;;6.26;100.00
55590;BME280;41452;42.780;23.116;2024-03-02T06:47:44;93848.16;;;6.36;100.00
55590;BME280;41452;42.780;23.116;2024-03-02T06:50:09;93839.44;;;6.24;100.00
55590;BME280;41452;42.780;23.116;2024-03-02T06:52:35;93837.84;;;6.23;100.00
55590;BME280;41452;42.780;23.116;2024-03-02T06:55:01;93847.91;;;6.19;100.00
55590;BME280;41452;42.780;23.116;2024-03-02T06:57:26;93840.25;;;6.24;100.00
55590;BME280;41452;42.780;23.116;2024-03-02T06:59:52;93847.69;;;6.21;100.00
55590;BME280;41452;42.780;23.116;2024-03-02T07:02:20;93767.59;;;5.84;100.00
55590;BME280;41452;42.780;23.116;2024-03-02T07:04:46;93853.97;;;6.38;100.00
55590;BME280;41452;42.780;23.116;2024-03-02T07:07:12;93852.88;;;6.46;100.00
55590;BME280;41452;42.780;23.116;2024-03-02T07:09:37;93852.28;;;6.44;100.00
55590;BME280;41452;42.780;23.116;2024-03-02T07:12:03;93856.19;;;6.35;100.00
55590;BME280;41452;42.780;23.116;2024-03-02T07:14:28;93851.81;;;6.28;100.00
55590;BME280;41452;42.780;23.116;2024-03-02T07:17:14;93809.31;;;6.09;100.00
55590;BME280;41452;42.780;23.116;2024-03-02T07:19:39;93849.94;;;6.36;100.00
55590;BME280;41452;42.780;23.116;2024-03-02T07:22:08;93848.28;;;6.23;100.00
55590;BME280;41452;42.780;23.116;2024-03-02T07:24:40;93860.16;;;6.19;100.00
55590;BME280;41452;42.780;23.116;2024-03-02T07:27:06;93862.34;;;6.22;100.00
55590;BME280;41452;42.780;23.116;2024-03-02T07:29:31;93855.25;;;6.29;100.00
55590;BME280;41452;42.780;23.116;2024-03-02T07:31:57;93864.94;;;6.22;100.00
55590;BME280;41452;42.780;23.116;2024-03-02T07:34:22;93852.69;;;6.22;100.00
55590;BME280;41452;42.780;23.116;2024-03-02T07:36:47;93859.75;;;6.22;100.00
55590;BME280;41452;42.780;23.116;2024-03-02T07:39:13;93854.53;;;6.22;100.00
55590;BME280;41452;42.780;23.116;2024-03-02T07:41:38;93865.09;;;6.27;100.00
55590;BME280;41452;42.780;23.116;2024-03-02T07:44:04;93864.09;;;6.28;100.00
55590;BME280;41452;42.780;23.116;2024-03-02T07:46:29;93867.25;;;6.30;100.00
55590;BME280;41452;42.780;23.116;2024-03-02T07:48:54;93871.34;;;6.44;100.00
55590;BME280;41452;42.780;23.116;2024-03-02T07:51:20;93870.19;;;6.40;100.00
55590;BME280;41452;42.780;23.116;2024-03-02T07:53:45;93870.03;;;6.54;100.00
55590;BME280;41452;42.780;23.116;2024-03-02T07:56:11;93868.88;;;6.50;100.00
55590;BME280;41452;42.780;23.116;2024-03-02T07:58:36;93872.63;;;6.35;100.00
55590;BME280;41452;42.780;23.116;2024-03-02T08:01:02;93871.19;;;6.39;100.00
55590;BME280;41452;42.780;23.116;2024-03-02T08:03:27;93873.16;;;6.44;100.00
55590;BME280;41452;42.780;23.116;2024-03-02T08:05:53;93880.97;;;6.44;100.00
55590;BME280;41452;42.780;23.116;2024-03-02T08:08:18;93876.88;;;6.55;100.00
55590;BME280;41452;42.780;23.116;2024-03-02T08:10:44;93880.88;;;6.57;100.00
55590;BME280;41452;42.780;23.116;2024-03-02T08:13:09;93891.31;;;6.57;100.00
55590;BME280;41452;42.780;23.116;2024-03-02T08:15:34;93891.78;;;6.66;100.00
55590;BME280;41452;42.780;23.116;2024-03-02T08:18:00;93888.44;;;6.59;100.00
55590;BME280;41452;42.780;23.116;2024-03-02T08:20:25;93887.59;;;6.65;100.00
55590;BME280;41452;42.780;23.116;2024-03-02T08:22:50;93892.03;;;6.64;100.00
55590;BME280;41452;42.780;23.116;2024-03-02T08:25:16;93895.28;;;6.60;100.00
55590;BME280;41452;42.780;23.116;2024-03-02T08:27:42;93892.94;;;6.52;100.00
55590;BME280;41452;42.780;23.116;2024-03-02T08:30:08;93893.09;;;6.57;100.00
55590;BME280;41452;42.780;23.116;2024-03-02T08:32:35;93894.03;;;6.62;100.00
55590;BME280;41452;42.780;23.116;2024-03-02T08:35:01;93866.84;;;6.52;100.00
55590;BME280;41452;42.780;23.116;2024-03-02T08:37:26;93883.63;;;6.81;100.00
55590;BME280;41452;42.780;23.116;2024-03-02T08:39:52;93883.41;;;6.82;100.00
55590;BME280;41452;42.780;23.116;2024-03-02T08:42:17;93885.88;;;6.77;100.00
55590;BME280;41452;42.780;23.116;2024-03-02T08:44:43;93889.00;;;6.86;100.00
55590;BME280;41452;42.780;23.116;2024-03-02T08:47:08;93890.94;;;6.91;100.00
55590;BME280;41452;42.780;23.116;2024-03-02T08:49:34;93888.41;;;6.84;100.00
55590;BME280;41452;42.780;23.116;2024-03-02T08:51:59;93887.03;;;6.81;100.00
55590;BME280;41452;42.780;23.116;2024-03-02T08:54:24;93882.94;;;6.85;100.00
55590;BME280;41452;42.780;23.116;2024-03-02T08:56:50;93812.38;;;6.43;100.00
55590;BME280;41452;42.780;23.116;2024-03-02T09:10:46;93861.88;;;7.36;100.00
55590;BME280;41452;42.780;23.116;2024-03-02T09:13:11;93812.47;;;7.04;100.00
55590;BME280;41452;42.780;23.116;2024-03-02T09:15:37;93849.72;;;7.41;100.00
55590;BME280;41452;42.780;23.116;2024-03-02T09:18:04;93897.94;;;7.57;100.00
55590;BME280;41452;42.780;23.116;2024-03-02T09:20:30;93905.44;;;7.54;100.00
55590;BME280;41452;42.780;23.116;2024-03-02T09:22:55;93847.53;;;7.27;100.00
55590;BME280;41452;42.780;23.116;2024-03-02T09:25:20;93832.91;;;7.07;100.00
55590;BME280;41452;42.780;23.116;2024-03-02T09:27:46;93906.84;;;7.38;100.00
55590;BME280;41452;42.780;23.116;2024-03-02T09:30:12;93911.19;;;7.44;100.00
55590;BME280;41452;42.780;23.116;2024-03-02T09:32:39;93907.84;;;7.55;100.00
55590;BME280;41452;42.780;23.116;2024-03-02T09:35:04;93905.78;;;7.57;100.00
55590;BME280;41452;42.780;23.116;2024-03-02T09:37:30;93908.88;;;7.66;100.00
55590;BME280;41452;42.780;23.116;2024-03-02T09:39:55;93911.72;;;7.65;100.00
55590;BME280;41452;42.780;23.116;2024-03-02T09:42:21;93905.69;;;7.34;100.00
55590;BME280;41452;42.780;23.116;2024-03-02T09:44:47;93916.16;;;7.34;100.00
55590;BME280;41452;42.780;23.116;2024-03-02T09:47:13;93883.06;;;7.28;100.00
55590;BME280;41452;42.780;23.116;2024-03-02T09:49:39;93869.56;;;7.31;100.00
55590;BME280;41452;42.780;23.116;2024-03-02T09:52:05;93908.31;;;7.64;100.00
55590;BME280;41452;42.780;23.116;2024-03-02T09:54:32;93909.72;;;7.48;100.00
55590;BME280;41452;42.780;23.116;2024-03-02T09:56:57;93908.06;;;7.66;100.00
55590;BME280;41452;42.780;23.116;2024-03-02T09:59:22;93905.03;;;7.69;100.00
55590;BME280;41452;42.780;23.116;2024-03-02T10:04:26;93910.59;;;7.60;100.00
55590;BME280;41452;42.780;23.116;2024-03-02T10:07:10;93911.31;;;7.49;100.00
55590;BME280;41452;42.780;23.116;2024-03-02T10:09:36;93907.19;;;7.41;100.00
55590;BME280;41452;42.780;23.116;2024-03-02T10:12:05;93857.34;;;7.13;100.00
55590;BME280;41452;42.780;23.116;2024-03-02T10:14:31;93902.41;;;7.69;100.00
55590;BME280;41452;42.780;23.116;2024-03-02T10:17:05;93842.47;;;7.43;100.00
55590;BME280;41452;42.780;23.116;2024-03-02T10:19:31;93898.69;;;7.76;100.00
55590;BME280;41452;42.780;23.116;2024-03-02T10:21:59;93895.03;;;7.77;100.00
55590;BME280;41452;42.780;23.116;2024-03-02T10:24:25;93895.50;;;7.74;100.00
55590;BME280;41452;42.780;23.116;2024-03-02T10:26:51;93866.25;;;7.66;100.00
55590;BME280;41452;42.780;23.116;2024-03-02T10:29:18;93844.91;;;7.57;100.00
55590;BME280;41452;42.780;23.116;2024-03-02T10:31:44;93890.16;;;7.81;100.00
55590;BME280;41452;42.780;23.116;2024-03-02T10:34:13;93893.00;;;7.79;100.00
55590;BME280;41452;42.780;23.116;2024-03-02T10:36:43;93894.88;;;7.91;100.00
55590;BME280;41452;42.780;23.116;2024-03-02T10:39:12;93896.47;;;8.04;100.00
55590;BME280;41452;42.780;23.116;2024-03-02T10:41:38;93836.06;;;7.70;100.00
55590;BME280;41452;42.780;23.116;2024-03-02T10:44:05;93889.63;;;8.03;100.00
55590;BME280;41452;42.780;23.116;2024-03-02T10:46:33;93886.00;;;8.04;100.00
55590;BME280;41452;42.780;23.116;2024-03-02T10:49:00;93800.13;;;7.53;100.00
55590;BME280;41452;42.780;23.116;2024-03-02T10:51:27;93881.22;;;7.89;100.00
55590;BME280;41452;42.780;23.116;2024-03-02T10:53:54;93858.97;;;7.56;100.00
55590;BME280;41452;42.780;23.116;2024-03-02T10:56:31;93881.97;;;7.77;100.00
55590;BME280;41452;42.780;23.116;2024-03-02T11:01:38;93826.69;;;7.50;100.00
55590;BME280;41452;42.780;23.116;2024-03-02T11:04:08;93883.50;;;7.97;100.00
55590;BME280;41452;42.780;23.116;2024-03-02T11:06:36;93874.06;;;8.08;100.00
55590;BME280;41452;42.780;23.116;2024-03-02T11:09:07;93861.78;;;7.96;100.00
55590;BME280;41452;42.780;23.116;2024-03-02T11:11:40;93877.56;;;7.90;100.00
55590;BME280;41452;42.780;23.116;2024-03-02T11:14:07;93877.66;;;7.83;100.00
55590;BME280;41452;42.780;23.116;2024-03-02T11:16:37;93797.91;;;7.38;100.00
55590;BME280;41452;42.780;23.116;2024-03-02T11:19:06;93816.34;;;7.43;100.00
55590;BME280;41452;42.780;23.116;2024-03-02T11:21:35;93809.06;;;7.46;100.00
55590;BME280;41452;42.780;23.116;2024-03-02T11:26:46;93851.75;;;7.70;100.00
55590;BME280;41452;42.780;23.116;2024-03-02T11:32:22;93861.44;;;8.05;100.00
55590;BME280;41452;42.780;23.116;2024-03-02T11:34:51;93860.53;;;7.99;100.00
55590;BME280;41452;42.780;23.116;2024-03-02T11:37:18;93864.88;;;8.05;100.00
55590;BME280;41452;42.780;23.116;2024-03-02T11:39:44;93864.28;;;8.15;100.00
55590;BME280;41452;42.780;23.116;2024-03-02T11:42:11;93855.19;;;8.06;100.00
55590;BME280;41452;42.780;23.116;2024-03-02T11:44:39;93858.06;;;8.16;100.00
55590;BME280;41452;42.780;23.116;2024-03-02T11:47:08;93859.88;;;8.04;100.00
55590;BME280;41452;42.780;23.116;2024-03-02T11:52:06;93863.97;;;8.11;100.00
55590;BME280;41452;42.780;23.116;2024-03-02T11:54:39;93807.56;;;7.80;100.00
55590;BME280;41452;42.780;23.116;2024-03-02T11:57:06;93861.81;;;8.20;100.00
55590;BME280;41452;42.780;23.116;2024-03-02T11:59:32;93861.34;;;8.11;100.00
55590;BME280;41452;42.780;23.116;2024-03-02T12:01:58;93557.56;;;6.14;100.00
55590;BME280;41452;42.780;23.116;2024-03-02T12:04:24;93845.66;;;7.99;100.00
55590;BME280;41452;42.780;23.116;2024-03-02T12:07:00;93854.75;;;8.21;100.00
55590;BME280;41452;42.780;23.116;2024-03-02T12:09:29;93860.09;;;8.37;100.00
55590;BME280;41452;42.780;23.116;2024-03-02T12:12:07;93867.66;;;8.46;100.00
55590;BME280;41452;42.780;23.116;2024-03-02T12:14:35;93852.25;;;8.26;100.00
55590;BME280;41452;42.780;23.116;2024-03-02T12:17:01;93861.59;;;8.33;100.00
55590;BME280;41452;42.780;23.116;2024-03-02T12:19:27;93829.97;;;8.11;100.00
55590;BME280;41452;42.780;23.116;2024-03-02T12:21:55;93855.44;;;8.40;100.00
55590;BME280;41452;42.780;23.116;2024-03-02T12:24:21;93843.84;;;8.24;100.00
55590;BME280;41452;42.780;23.116;2024-03-02T12:26:48;93862.16;;;8.35;100.00
55590;BME280;41452;42.780;23.116;2024-03-02T12:29:14;93862.97;;;8.48;100.00
55590;BME280;41452;42.780;23.116;2024-03-02T12:31:40;93865.81;;;8.46;100.00
55590;BME280;41452;42.780;23.116;2024-03-02T12:34:06;93862.09;;;8.42;100.00
55590;BME280;41452;42.780;23.116;2024-03-02T12:36:37;93863.88;;;8.30;100.00
55590;BME280;41452;42.780;23.116;2024-03-02T12:39:03;93864.97;;;8.22;100.00
55590;BME280;41452;42.780;23.116;2024-03-02T12:41:28;93862.94;;;8.24;100.00
55590;BME280;41452;42.780;23.116;2024-03-02T12:43:54;93824.81;;;8.05;100.00
55590;BME280;41452;42.780;23.116;2024-03-02T12:46:20;93820.06;;;8.02;100.00
55590;BME280;41452;42.780;23.116;2024-03-02T12:48:45;93815.31;;;8.10;100.00
55590;BME280;41452;42.780;23.116;2024-03-02T12:51:11;93864.44;;;8.44;100.00
55590;BME280;41452;42.780;23.116;2024-03-02T12:53:36;93836.44;;;8.21;100.00
55590;BME280;41452;42.780;23.116;2024-03-02T12:56:01;93868.97;;;8.36;100.00
55590;BME280;41452;42.780;23.116;2024-03-02T12:58:27;93838.25;;;8.20;100.00
55590;BME280;41452;42.780;23.116;2024-03-02T13:01:07;93865.81;;;8.23;100.00
55590;BME280;41452;42.780;23.116;2024-03-02T13:03:37;93872.16;;;8.27;100.00
55590;BME280;41452;42.780;23.116;2024-03-02T13:06:05;93865.78;;;8.34;100.00
55590;BME280;41452;42.780;23.116;2024-03-02T13:08:30;93868.78;;;8.50;100.00
55590;BME280;41452;42.780;23.116;2024-03-02T13:10:56;93866.72;;;8.52;100.00
55590;BME280;41452;42.780;23.116;2024-03-02T13:13:21;93867.50;;;8.41;100.00
55590;BME280;41452;42.780;23.116;2024-03-02T13:15:48;93869.09;;;8.42;100.00
55590;BME280;41452;42.780;23.116;2024-03-02T13:18:13;93861.13;;;8.36;100.00
55590;BME280;41452;42.780;23.116;2024-03-02T13:20:39;93858.75;;;8.35;100.00
55590;BME280;41452;42.780;23.116;2024-03-02T13:23:04;93866.59;;;8.35;100.00
55590;BME280;41452;42.780;23.116;2024-03-02T13:25:30;93872.06;;;8.33;100.00
55590;BME280;41452;42.780;23.116;2024-03-02T13:27:57;93877.97;;;8.41;100.00
55590;BME280;41452;42.780;23.116;2024-03-02T13:30:23;93787.78;;;7.84;100.00
55590;BME280;41452;42.780;23.116;2024-03-02T13:32:48;93884.91;;;8.23;100.00
55590;BME280;41452;42.780;23.116;2024-03-02T13:35:14;93807.88;;;7.95;100.00
55590;BME280;41452;42.780;23.116;2024-03-02T13:37:39;93878.75;;;8.41;100.00
55590;BME280;41452;42.780;23.116;2024-03-02T13:40:05;93882.31;;;8.47;100.00
55590;BME280;41452;42.780;23.116;2024-03-02T13:42:31;93877.06;;;8.47;100.00
55590;BME280;41452;42.780;23.116;2024-03-02T13:44:56;93882.66;;;8.50;100.00
55590;BME280;41452;42.780;23.116;2024-03-02T13:47:22;93878.69;;;8.48;100.00
55590;BME280;41452;42.780;23.116;2024-03-02T13:49:48;93813.25;;;8.00;100.00
55590;BME280;41452;42.780;23.116;2024-03-02T13:52:15;93769.00;;;7.64;100.00
55590;BME280;41452;42.780;23.116;2024-03-02T13:54:43;93882.31;;;8.35;100.00
55590;BME280;41452;42.780;23.116;2024-03-02T13:57:09;93879.31;;;8.31;100.00
55590;BME280;41452;42.780;23.116;2024-03-02T13:59:35;93808.81;;;7.89;100.00
55590;BME280;41452;42.780;23.116;2024-03-02T14:02:02;93867.16;;;8.25;100.00
55590;BME280;41452;42.780;23.116;2024-03-02T14:04:32;93892.34;;;8.50;100.00
55590;BME280;41452;42.780;23.116;2024-03-02T14:06:58;93838.50;;;8.18;100.00
55590;BME280;41452;42.780;23.116;2024-03-02T14:09:24;93882.53;;;8.33;100.00
55590;BME280;41452;42.780;23.116;2024-03-02T14:11:50;93822.22;;;7.93;100.00
55590;BME280;41452;42.780;23.116;2024-03-02T14:14:17;93898.00;;;8.47;100.00
55590;BME280;41452;42.780;23.116;2024-03-02T14:16:43;93888.19;;;8.30;100.00
55590;BME280;41452;42.780;23.116;2024-03-02T14:19:09;93889.91;;;8.36;100.00
55590;BME280;41452;42.780;23.116;2024-03-02T14:21:35;93888.44;;;8.41;100.00
55590;BME280;41452;42.780;23.116;2024-03-02T14:24:01;93863.88;;;8.30;100.00
55590;BME280;41452;42.780;23.116;2024-03-02T14:26:27;93892.84;;;8.40;100.00
55590;BME280;41452;42.780;23.116;2024-03-02T14:28:53;93849.09;;;8.12;100.00
55590;BME280;41452;42.780;23.116;2024-03-02T14:31:19;93902.47;;;8.58;100.00
55590;BME280;41452;42.780;23.116;2024-03-02T14:33:45;93902.09;;;8.66;100.00
55590;BME280;41452;42.780;23.116;2024-03-02T14:36:11;93842.13;;;8.29;100.00
55590;BME280;41452;42.780;23.116;2024-03-02T14:38:37;93906.78;;;8.52;100.00
55590;BME280;41452;42.780;23.116;2024-03-02T14:41:03;93899.16;;;8.51;100.00
55590;BME280;41452;42.780;23.116;2024-03-02T14:43:28;93899.84;;;8.58;100.00
55590;BME280;41452;42.780;23.116;2024-03-02T14:45:54;93902.09;;;8.66;100.00